createdAt,value
2022-11-18T00:02:10.958Z,18.20
2022-11-18T00:04:34.557Z,20.57
2022-11-18T00:06:58.261Z,19.83
2022-11-18T00:09:22.069Z,21.97
2022-11-18T00:12:02.952Z,21.23
2022-11-18T00:14:27.851Z,20.10
2022-11-18T00:16:55.741Z,21.57
2022-11-18T00:19:20.222Z,20.53
2022-11-18T00:21:44.023Z,20.33
2022-11-18T00:24:08.359Z,19.37
2022-11-18T00:26:31.884Z,20.93
2022-11-18T00:28:55.511Z,20.43
2022-11-18T00:31:19.065Z,20.13
2022-11-18T00:33:44.235Z,20.33
2022-11-18T00:36:10.555Z,20.20
2022-11-18T00:38:34.458Z,20.43
2022-11-18T00:41:02.887Z,11.57
2022-11-18T00:43:25.430Z,18.90
2022-11-18T00:45:48.962Z,22.53
2022-11-18T00:48:12.603Z,17.10
2022-11-18T00:50:37.558Z,21.77
2022-11-18T00:53:01.127Z,20.93
2022-11-18T00:55:24.630Z,21.20
2022-11-18T00:57:48.270Z,19.90
2022-11-18T01:00:12.851Z,16.43
2022-11-18T01:02:36.530Z,20.40
2022-11-18T01:05:00.053Z,19.90
2022-11-18T01:07:25.156Z,19.50
2022-11-18T01:09:48.741Z,21.93
2022-11-18T01:12:30.432Z,20.63
2022-11-18T01:14:54.015Z,21.03
2022-11-18T01:17:17.554Z,17.03
2022-11-18T01:19:41.157Z,21.00
2022-11-18T01:22:04.854Z,18.53
2022-11-18T01:24:30.055Z,21.10
2022-11-18T01:26:53.555Z,19.37
2022-11-18T01:29:17.446Z,11.50
2022-11-18T01:31:55.706Z,21.20
2022-11-18T01:34:24.807Z,21.13
2022-11-18T01:36:48.302Z,21.43
2022-11-18T01:39:11.969Z,20.50
2022-11-18T01:41:37.012Z,22.03
2022-11-18T01:44:03.063Z,15.73
2022-11-18T01:46:28.861Z,21.57
2022-11-18T01:48:59.911Z,19.03
2022-11-18T01:51:28.367Z,17.33
2022-11-18T01:54:00.097Z,21.63
2022-11-18T01:56:29.942Z,21.50
2022-11-18T01:58:59.250Z,21.70
2022-11-18T02:01:23.104Z,21.77
2022-11-18T02:03:48.024Z,20.57
2022-11-18T02:06:12.610Z,18.33
2022-11-18T02:08:37.576Z,20.93
2022-11-18T02:11:01.232Z,21.60
2022-11-18T02:13:25.711Z,22.33
2022-11-18T02:16:01.999Z,14.13
2022-11-18T02:18:39.486Z,19.03
2022-11-18T02:21:17.992Z,20.77
2022-11-18T02:24:28.081Z,17.53
2022-11-18T02:28:00.131Z,20.57
2022-11-18T02:30:25.455Z,19.87
2022-11-18T02:32:56.042Z,17.47
2022-11-18T02:35:27.977Z,22.27
2022-11-18T02:37:57.138Z,22.07
2022-11-18T02:40:26.392Z,20.83
2022-11-18T02:42:55.770Z,20.57
2022-11-18T02:45:23.984Z,22.70
2022-11-18T02:47:51.068Z,22.00
2022-11-18T02:50:20.121Z,18.23
2022-11-18T02:52:46.931Z,19.30
2022-11-18T02:55:13.795Z,20.13
2022-11-18T02:57:38.961Z,23.20
2022-11-18T03:00:02.714Z,22.30
2022-11-18T03:02:27.928Z,16.80
2022-11-18T03:04:56.781Z,19.93
2022-11-18T03:07:27.822Z,21.23
2022-11-18T03:09:53.854Z,21.83
2022-11-18T03:12:26.311Z,22.30
2022-11-18T03:15:00.404Z,20.77
2022-11-18T03:17:35.717Z,21.90
2022-11-18T03:20:12.549Z,20.63
2022-11-18T03:22:42.972Z,22.47
2022-11-18T03:25:13.661Z,19.17
2022-11-18T03:27:41.855Z,23.57
2022-11-18T03:30:10.634Z,18.40
2022-11-18T03:32:40.957Z,22.70
2022-11-18T03:35:08.935Z,25.33
2022-11-18T03:37:35.774Z,23.33
2022-11-18T03:40:04.537Z,21.57
2022-11-18T03:42:33.994Z,24.07
2022-11-18T03:45:02.988Z,24.27
2022-11-18T03:47:33.063Z,24.03
2022-11-18T03:50:05.599Z,24.20
2022-11-18T03:52:33.415Z,26.33
2022-11-18T03:55:01.495Z,23.03
2022-11-18T03:57:33.767Z,24.03
2022-11-18T04:00:08.121Z,26.67
2022-11-18T04:02:32.360Z,27.50
2022-11-18T04:05:00.732Z,27.43
2022-11-18T04:07:29.063Z,26.73
2022-11-18T04:09:59.453Z,18.87
2022-11-18T04:12:24.431Z,27.10
2022-11-18T04:14:49.897Z,26.83
2022-11-18T04:17:16.086Z,25.73
2022-11-18T04:19:39.710Z,29.20
2022-11-18T04:22:05.168Z,29.57
2022-11-18T04:24:28.733Z,28.80
2022-11-18T04:26:52.312Z,28.23
2022-11-18T04:29:16.231Z,28.27
2022-11-18T04:31:40.375Z,28.87
2022-11-18T04:34:04.013Z,27.83
2022-11-18T04:36:27.619Z,27.37
2022-11-18T04:38:52.532Z,22.40
2022-11-18T04:41:16.158Z,27.57
2022-11-18T04:43:40.073Z,28.73
2022-11-18T04:46:03.731Z,27.33
2022-11-18T04:48:27.244Z,27.80
2022-11-18T04:50:50.831Z,27.40
2022-11-18T04:53:14.349Z,28.63
2022-11-18T04:55:39.351Z,27.53
2022-11-18T04:58:02.922Z,24.57
2022-11-18T05:00:26.559Z,26.37
2022-11-18T05:02:50.468Z,27.80
2022-11-18T05:05:14.114Z,25.23
2022-11-18T05:07:37.756Z,25.40
2022-11-18T05:10:01.468Z,24.33
2022-11-18T05:12:43.699Z,25.27
2022-11-18T05:15:08.734Z,13.93
2022-11-18T05:17:32.245Z,25.13
2022-11-18T05:19:55.900Z,24.73
2022-11-18T05:22:19.566Z,25.73
2022-11-18T05:24:43.238Z,24.57
2022-11-18T05:27:06.903Z,23.33
2022-11-18T05:29:31.895Z,25.37
2022-11-18T05:31:55.392Z,25.13
2022-11-18T05:34:20.294Z,25.07
2022-11-18T05:36:44.106Z,25.53
2022-11-18T05:39:07.755Z,23.07
2022-11-18T05:41:48.590Z,23.23
2022-11-18T05:44:12.330Z,21.20
2022-11-18T05:46:37.282Z,22.57
2022-11-18T05:49:00.859Z,20.23
2022-11-18T05:51:24.515Z,16.00
2022-11-18T05:53:50.286Z,12.80
2022-11-18T05:56:20.961Z,19.90
2022-11-18T05:58:44.563Z,16.37
2022-11-18T06:01:09.995Z,16.43
2022-11-18T06:03:39.913Z,19.13
2022-11-18T06:06:05.274Z,18.30
2022-11-18T06:08:35.852Z,18.73
2022-11-18T06:11:00.101Z,16.90
2022-11-18T06:13:29.005Z,14.60
2022-11-18T06:15:52.672Z,16.70
2022-11-18T06:18:23.907Z,18.73
2022-11-18T06:20:49.540Z,17.77
2022-11-18T06:23:13.679Z,17.50
2022-11-18T06:25:40.052Z,18.30
2022-11-18T06:28:04.188Z,18.37
2022-11-18T06:30:27.862Z,18.60
2022-11-18T06:32:51.421Z,16.40
2022-11-18T06:35:15.207Z,17.07
2022-11-18T06:37:40.118Z,19.47
2022-11-18T06:40:04.562Z,12.87
2022-11-18T06:42:46.889Z,16.93
2022-11-18T06:45:11.902Z,17.87
2022-11-18T06:47:35.513Z,19.43
2022-11-18T06:49:59.091Z,13.67
2022-11-18T06:52:23.726Z,18.43
2022-11-18T06:54:48.729Z,18.17
2022-11-18T06:57:12.280Z,18.83
2022-11-18T06:59:35.871Z,20.77
2022-11-18T07:01:59.373Z,17.00
2022-11-18T07:04:22.977Z,19.23
2022-11-18T07:06:46.508Z,17.07
2022-11-18T07:09:10.153Z,12.90
2022-11-18T07:11:35.358Z,19.00
2022-11-18T07:13:58.983Z,20.87
2022-11-18T07:16:24.358Z,21.30
2022-11-18T07:18:49.777Z,21.17
2022-11-18T07:21:15.335Z,19.47
2022-11-18T07:23:39.439Z,21.73
2022-11-18T07:26:03.777Z,16.87
2022-11-18T07:28:30.146Z,18.33
2022-11-18T07:30:54.040Z,16.03
2022-11-18T07:33:17.652Z,18.33
2022-11-18T07:35:41.165Z,19.93
2022-11-18T07:38:04.735Z,21.33
2022-11-18T07:40:28.311Z,20.67
2022-11-18T07:42:51.918Z,21.20
2022-11-18T07:45:23.610Z,15.43
2022-11-18T07:47:47.320Z,20.70
2022-11-18T07:50:11.030Z,19.37
2022-11-18T07:52:34.694Z,23.10
2022-11-18T07:54:58.220Z,20.83
2022-11-18T07:57:21.804Z,18.97
2022-11-18T07:59:45.368Z,19.97
2022-11-18T08:02:12.991Z,20.83
2022-11-18T08:04:38.823Z,12.93
2022-11-18T08:07:02.527Z,20.23
2022-11-18T08:09:26.136Z,18.80
2022-11-18T08:11:49.789Z,22.27
2022-11-18T08:14:13.326Z,21.37
2022-11-18T08:16:36.953Z,19.90
2022-11-18T08:19:02.007Z,18.10
2022-11-18T08:21:25.699Z,21.67
2022-11-18T08:23:51.852Z,17.77
2022-11-18T08:26:16.392Z,22.37
2022-11-18T08:28:40.175Z,21.97
2022-11-18T08:31:11.790Z,19.80
2022-11-18T08:33:35.393Z,19.03
2022-11-18T08:36:00.577Z,16.97
2022-11-18T08:38:24.380Z,16.03
2022-11-18T08:40:49.569Z,15.93
2022-11-18T08:43:13.473Z,19.13
2022-11-18T08:45:39.118Z,20.20
2022-11-18T08:48:02.742Z,14.73
2022-11-18T08:50:26.261Z,14.43
2022-11-18T08:52:51.320Z,21.13
2022-11-18T08:55:14.845Z,19.90
2022-11-18T08:57:38.459Z,21.20
2022-11-18T09:00:01.974Z,18.60
2022-11-18T09:02:26.101Z,17.20
2022-11-18T09:04:50.480Z,16.83
2022-11-18T09:07:14.127Z,16.70
2022-11-18T09:09:39.103Z,19.57
2022-11-18T09:12:02.709Z,17.87
2022-11-18T09:15:12.538Z,17.60
2022-11-18T09:17:10.892Z,15.97
2022-11-18T09:19:49.761Z,19.33
2022-11-18T09:22:13.504Z,16.97
2022-11-18T09:24:39.766Z,19.20
2022-11-18T09:27:05.525Z,18.13
2022-11-18T09:29:29.092Z,16.43
2022-11-18T09:31:52.831Z,17.53
2022-11-18T09:34:16.566Z,16.07
2022-11-18T09:36:40.305Z,14.67
2022-11-18T09:39:03.897Z,11.13
2022-11-18T09:41:45.937Z,9.73
2022-11-18T09:44:22.157Z,14.67
2022-11-18T09:47:01.253Z,11.87
2022-11-18T09:49:30.796Z,14.70
2022-11-18T09:51:55.749Z,12.63
2022-11-18T09:54:23.143Z,15.00
2022-11-18T09:56:48.749Z,11.30
2022-11-18T09:59:15.333Z,12.33
2022-11-18T10:01:38.978Z,11.87
2022-11-18T10:04:02.622Z,10.30
2022-11-18T10:06:30.423Z,14.47
2022-11-18T10:09:13.481Z,11.40
2022-11-18T10:11:51.609Z,14.17
2022-11-18T10:14:34.319Z,13.50
2022-11-18T10:17:09.127Z,14.80
2022-11-18T10:19:39.878Z,14.73
2022-11-18T10:22:23.784Z,12.07
2022-11-18T10:24:53.492Z,13.37
2022-11-18T10:27:18.545Z,12.13
2022-11-18T10:29:44.531Z,13.40
2022-11-18T10:32:13.637Z,13.37
2022-11-18T10:34:48.640Z,14.07
2022-11-18T10:37:39.016Z,12.67
2022-11-18T10:40:26.260Z,14.03
2022-11-18T10:42:49.869Z,11.77
2022-11-18T10:45:26.396Z,12.40
2022-11-18T10:48:00.694Z,11.03
2022-11-18T10:50:35.579Z,8.27
2022-11-18T10:52:59.170Z,7.57
2022-11-18T10:55:25.069Z,10.80
2022-11-18T10:57:51.874Z,6.90
2022-11-18T11:00:41.292Z,10.93
2022-11-18T11:03:36.023Z,10.70
2022-11-18T11:06:34.673Z,10.97
2022-11-18T11:09:05.091Z,9.60
2022-11-18T11:11:31.492Z,10.07
2022-11-18T11:14:02.491Z,10.17
2022-11-18T11:16:28.522Z,9.73
2022-11-18T11:18:57.726Z,9.70
2022-11-18T11:21:25.141Z,10.30
2022-11-18T11:23:48.866Z,9.37
2022-11-18T11:29:20.152Z,8.97
2022-11-18T11:31:59.592Z,9.47
2022-11-18T11:34:30.183Z,8.87
2022-11-18T11:37:03.542Z,8.40
2022-11-18T11:39:49.991Z,8.30
2022-11-18T11:42:30.077Z,9.90
2022-11-18T11:45:11.046Z,8.67
2022-11-18T11:47:50.816Z,9.90
2022-11-18T11:50:21.011Z,9.10
2022-11-18T11:53:00.870Z,9.87
2022-11-18T11:55:33.425Z,9.30
2022-11-18T11:58:17.061Z,9.43
2022-11-18T12:00:46.970Z,10.40
2022-11-18T12:03:53.695Z,9.50
2022-11-18T12:06:17.362Z,9.30
2022-11-18T12:08:54.015Z,7.50
2022-11-18T12:11:28.786Z,6.87
2022-11-18T12:13:58.249Z,6.60
2022-11-18T12:16:29.804Z,8.60
2022-11-18T12:19:00.770Z,9.03
2022-11-18T12:22:09.182Z,9.03
2022-11-18T12:24:40.967Z,7.63
2022-11-18T12:27:12.368Z,7.00
2022-11-18T12:29:44.029Z,8.00
2022-11-18T12:32:29.827Z,8.40
2022-11-18T12:35:00.979Z,8.70
2022-11-18T12:37:58.897Z,8.67
2022-11-18T12:40:47.222Z,6.40
2022-11-18T12:44:06.894Z,7.63
2022-11-18T12:46:55.616Z,7.90
2022-11-18T12:50:13.819Z,7.63
2022-11-18T12:52:56.518Z,8.43
2022-11-18T12:55:27.231Z,8.07
2022-11-18T12:57:51.207Z,8.23
2022-11-18T13:00:30.097Z,8.23
2022-11-18T13:02:56.277Z,7.60
2022-11-18T13:05:24.777Z,7.90
2022-11-18T13:08:11.553Z,8.53
2022-11-18T13:10:39.704Z,8.43
2022-11-18T13:13:04.495Z,7.97
2022-11-18T13:15:46.650Z,8.00
2022-11-18T13:18:16.686Z,9.00
2022-11-18T13:20:43.523Z,8.57
2022-11-18T13:23:45.379Z,8.67
2022-11-18T13:26:17.184Z,9.07
2022-11-18T13:28:59.404Z,9.13
2022-11-18T13:31:33.012Z,8.97
2022-11-18T13:33:56.655Z,9.30
2022-11-18T13:36:23.896Z,9.40
2022-11-18T13:38:58.145Z,9.30
2022-11-18T13:41:24.573Z,8.27
2022-11-18T13:43:51.513Z,9.30
2022-11-18T13:46:23.137Z,8.83
2022-11-18T13:48:53.051Z,8.80
2022-11-18T13:51:17.015Z,8.63
2022-11-18T13:53:44.518Z,10.50
2022-11-18T13:56:17.738Z,9.27
2022-11-18T14:01:31.471Z,6.93
2022-11-18T14:03:59.065Z,8.03
2022-11-18T14:06:30.997Z,8.13
2022-11-18T14:09:18.664Z,8.43
2022-11-18T14:11:44.752Z,8.70
2022-11-18T14:14:10.103Z,8.93
2022-11-18T14:16:36.630Z,8.10
2022-11-18T14:19:00.332Z,8.43
2022-11-18T14:21:29.873Z,8.37
2022-11-18T14:23:54.920Z,7.87
2022-11-18T14:26:29.299Z,5.60
2022-11-18T14:28:57.399Z,8.30
2022-11-18T14:31:26.721Z,7.37
2022-11-18T14:34:18.478Z,6.87
2022-11-18T14:36:43.568Z,7.23
2022-11-18T14:39:27.001Z,8.80
2022-11-18T14:41:52.116Z,8.50
2022-11-18T14:44:16.077Z,8.20
2022-11-18T14:46:40.752Z,8.90
2022-11-18T14:49:05.872Z,9.23
2022-11-18T14:51:29.555Z,7.90
2022-11-18T14:53:53.067Z,7.13
2022-11-18T14:56:27.480Z,8.53
2022-11-18T14:58:51.153Z,8.60
2022-11-18T15:01:15.118Z,8.50
2022-11-18T15:03:38.749Z,8.90
2022-11-18T15:06:02.968Z,8.63
2022-11-18T15:08:26.575Z,8.43
2022-11-18T15:10:50.086Z,8.20
2022-11-18T15:13:15.084Z,8.27
2022-11-18T15:15:38.616Z,7.83
2022-11-18T15:18:02.183Z,8.83
2022-11-18T15:20:25.784Z,8.87
2022-11-18T15:22:49.393Z,9.27
2022-11-18T15:25:13.024Z,9.80
2022-11-18T15:27:37.056Z,10.47
2022-11-18T15:30:02.391Z,10.40
2022-11-18T15:32:26.026Z,10.67
2022-11-18T15:34:52.334Z,9.40
2022-11-18T15:37:16.109Z,9.60
2022-11-18T15:39:39.796Z,9.70
2022-11-18T15:42:03.356Z,9.70
2022-11-18T15:44:27.143Z,9.83
2022-11-18T15:46:52.155Z,9.13
2022-11-18T15:49:17.680Z,9.03
2022-11-18T15:51:41.523Z,9.27
2022-11-18T15:54:05.288Z,9.73
2022-11-18T15:56:31.485Z,10.60
2022-11-18T15:58:57.435Z,10.00
2022-11-18T16:01:21.158Z,10.97
2022-11-18T16:03:46.129Z,9.87
2022-11-18T16:06:10.146Z,10.03
2022-11-18T16:08:33.860Z,10.27
2022-11-18T16:11:15.426Z,10.80
2022-11-18T16:13:39.010Z,10.70
2022-11-18T16:16:02.528Z,11.00
2022-11-18T16:18:26.147Z,12.43
2022-11-18T16:20:51.679Z,12.60
2022-11-18T16:23:15.342Z,12.70
2022-11-18T16:25:44.738Z,12.57
2022-11-18T16:28:08.306Z,12.03
2022-11-18T16:30:49.150Z,12.13
2022-11-18T16:33:12.767Z,13.00
2022-11-18T16:35:36.321Z,12.93
2022-11-18T16:38:01.448Z,14.90
2022-11-18T16:40:25.041Z,13.30
2022-11-18T16:42:50.718Z,13.87
2022-11-18T16:45:14.364Z,12.70
2022-11-18T16:47:39.550Z,13.77
2022-11-18T16:50:03.682Z,13.37
2022-11-18T16:52:27.560Z,14.70
2022-11-18T16:54:53.124Z,14.90
2022-11-18T16:57:17.025Z,14.80
2022-11-18T16:59:40.552Z,14.07
2022-11-18T17:02:04.264Z,15.60
2022-11-18T17:04:29.823Z,16.80
2022-11-18T17:06:53.755Z,16.70
2022-11-18T17:09:20.676Z,16.03
2022-11-18T17:11:46.170Z,18.37
2022-11-18T17:14:09.993Z,19.57
2022-11-18T17:16:33.608Z,20.07
2022-11-18T17:18:58.930Z,20.60
2022-11-18T17:21:22.758Z,20.60
2022-11-18T17:23:47.113Z,20.87
2022-11-18T17:26:10.816Z,20.77
2022-11-18T17:28:37.987Z,19.90
2022-11-18T17:31:06.777Z,19.50
2022-11-18T17:33:30.283Z,19.10
2022-11-18T17:36:01.747Z,17.80
2022-11-18T17:38:25.405Z,19.50
2022-11-18T17:40:55.875Z,18.90
2022-11-18T17:43:19.467Z,18.33
2022-11-18T17:45:44.353Z,19.03
2022-11-18T17:48:08.187Z,19.13
2022-11-18T17:50:31.815Z,18.60
2022-11-18T17:52:55.394Z,18.73
2022-11-18T17:55:20.110Z,19.17
2022-11-18T17:57:43.711Z,19.33
2022-11-18T18:00:09.234Z,21.17
2022-11-18T18:02:34.213Z,24.97
2022-11-18T18:04:58.114Z,24.30
2022-11-18T18:07:21.712Z,23.23
2022-11-18T18:09:45.322Z,24.47
2022-11-18T18:12:23.118Z,23.23
2022-11-18T18:14:46.690Z,22.07
2022-11-18T18:17:10.925Z,22.30
2022-11-18T18:19:36.183Z,20.40
2022-11-18T18:21:59.773Z,22.00
2022-11-18T18:24:24.089Z,21.00
2022-11-18T18:26:48.014Z,21.13
2022-11-18T18:29:12.637Z,22.00
2022-11-18T18:31:37.903Z,20.73
2022-11-18T18:34:01.490Z,23.23
2022-11-18T18:36:26.530Z,21.77
2022-11-18T18:38:50.236Z,22.20
2022-11-18T18:41:16.787Z,23.37
2022-11-18T18:43:41.094Z,23.80
2022-11-18T18:46:25.033Z,24.30
2022-11-18T18:48:48.690Z,24.87
2022-11-18T18:51:12.246Z,24.63
2022-11-18T18:53:37.206Z,25.53
2022-11-18T18:56:00.918Z,26.57
2022-11-18T18:58:24.553Z,26.00
2022-11-18T19:00:48.135Z,26.10
2022-11-18T19:03:11.723Z,26.43
2022-11-18T19:06:12.199Z,26.00
2022-11-18T19:08:18.901Z,26.00
2022-11-18T19:10:43.866Z,27.07
2022-11-18T19:13:06.800Z,26.57
2022-11-18T19:15:30.414Z,26.60
2022-11-18T19:17:54.179Z,28.57
2022-11-18T19:20:36.769Z,28.67
2022-11-18T19:23:04.627Z,31.60
2022-11-18T19:25:32.587Z,30.90
2022-11-18T19:27:57.775Z,29.83
2022-11-18T19:30:21.514Z,28.23
2022-11-18T19:32:45.232Z,29.30
2022-11-18T19:35:11.250Z,33.13
2022-11-18T19:37:35.513Z,33.37
2022-11-18T19:40:05.652Z,31.97
2022-11-18T19:42:33.308Z,38.10
2022-11-18T19:44:58.444Z,49.47
2022-11-18T19:47:22.107Z,58.73
2022-11-18T19:49:45.761Z,51.40
2022-11-18T19:52:09.603Z,56.73
2022-11-18T19:54:33.266Z,56.70
2022-11-18T19:56:56.889Z,59.87
2022-11-18T19:59:20.732Z,56.50
2022-11-18T20:01:45.921Z,52.10
2022-11-18T20:04:09.837Z,48.67
2022-11-18T20:06:35.658Z,52.17
2022-11-18T20:08:59.338Z,48.77
2022-11-18T20:11:23.836Z,47.67
2022-11-18T20:13:48.178Z,45.53
2022-11-18T20:16:15.955Z,45.00
2022-11-18T20:18:42.265Z,43.83
2022-11-18T20:21:09.024Z,45.57
2022-11-18T20:23:32.542Z,43.83
2022-11-18T20:25:56.170Z,41.80
2022-11-18T20:28:19.800Z,39.77
2022-11-18T20:30:43.643Z,39.00
2022-11-18T20:33:07.189Z,41.57
2022-11-18T20:35:32.466Z,38.90
2022-11-18T20:37:56.087Z,37.50
2022-11-18T20:40:19.868Z,40.23
2022-11-18T20:43:00.789Z,38.57
2022-11-18T20:45:24.652Z,38.80
2022-11-18T20:47:48.216Z,38.30
2022-11-18T20:50:12.664Z,36.23
2022-11-18T20:52:37.621Z,36.13
2022-11-18T20:55:05.418Z,35.53
2022-11-18T20:57:29.612Z,33.50
2022-11-18T20:59:53.177Z,32.00
2022-11-18T21:02:17.032Z,32.87
2022-11-18T21:04:40.703Z,33.10
2022-11-18T21:07:04.522Z,31.33
2022-11-18T21:09:31.918Z,31.33
2022-11-18T21:11:55.503Z,31.27
2022-11-18T21:14:23.525Z,30.60
2022-11-18T21:16:48.742Z,33.57
2022-11-18T21:19:13.243Z,35.83
2022-11-18T21:21:45.566Z,36.07
2022-11-18T21:24:09.754Z,37.27
2022-11-18T21:26:36.290Z,40.63
2022-11-18T21:29:02.614Z,41.60
2022-11-18T21:31:27.583Z,43.53
2022-11-18T21:33:51.648Z,47.07
2022-11-18T21:36:15.193Z,46.03
2022-11-18T21:38:38.757Z,46.20
2022-11-18T21:41:04.757Z,44.90
2022-11-18T21:44:03.953Z,46.27
2022-11-18T21:46:18.524Z,42.20
2022-11-18T21:48:42.809Z,43.63
2022-11-18T21:51:09.679Z,46.10
2022-11-18T21:53:33.619Z,46.83
2022-11-18T21:56:01.603Z,45.40
2022-11-18T21:58:25.166Z,45.97
2022-11-18T22:00:50.338Z,46.70
2022-11-18T22:03:13.921Z,44.90
2022-11-18T22:05:37.792Z,47.50
2022-11-18T22:08:02.086Z,47.00
2022-11-18T22:10:25.663Z,46.70
2022-11-18T22:12:51.519Z,46.03
2022-11-18T22:15:15.272Z,43.53
2022-11-18T22:17:40.222Z,45.10
2022-11-18T22:20:03.807Z,45.30
2022-11-18T22:22:27.429Z,43.80
2022-11-18T22:24:51.046Z,43.23
2022-11-18T22:27:14.603Z,42.53
2022-11-18T22:29:38.259Z,43.53
2022-11-18T22:32:02.046Z,41.77
2022-11-18T22:34:28.546Z,42.93
2022-11-18T22:36:52.102Z,41.30
2022-11-18T22:39:15.664Z,40.67
2022-11-18T22:41:56.552Z,41.63
2022-11-18T22:44:20.122Z,41.33
2022-11-18T22:46:45.777Z,40.10
2022-11-18T22:49:11.049Z,41.67
2022-11-18T22:51:36.833Z,40.30
2022-11-18T22:54:30.722Z,42.67
2022-11-18T22:56:44.356Z,44.30
2022-11-18T22:59:07.904Z,42.77
2022-11-18T23:01:31.514Z,40.43
2022-11-18T23:03:55.391Z,40.37
2022-11-18T23:06:19.083Z,42.20
2022-11-18T23:08:44.147Z,37.33
2022-11-18T23:11:10.777Z,35.80
2022-11-18T23:13:51.977Z,35.97
2022-11-18T23:16:15.623Z,32.53
2022-11-18T23:18:39.244Z,25.70
2022-11-18T23:21:04.677Z,25.50
2022-11-18T23:23:28.522Z,25.07
2022-11-18T23:25:53.493Z,25.20
2022-11-18T23:28:17.023Z,22.17
2022-11-18T23:30:40.620Z,21.73
2022-11-18T23:33:04.170Z,22.47
2022-11-18T23:35:27.801Z,20.80
2022-11-18T23:37:51.385Z,21.77
2022-11-18T23:40:15.516Z,21.57
2022-11-18T23:42:40.437Z,20.93
2022-11-18T23:45:05.539Z,19.23
2022-11-18T23:47:29.216Z,19.77
2022-11-18T23:49:52.785Z,20.03
2022-11-18T23:52:17.026Z,19.07
2022-11-18T23:54:40.663Z,18.53
2022-11-18T23:57:05.600Z,17.73
2022-11-18T23:59:30.632Z,17.10
